createdAt,value
2023-05-04T00:03:02.029Z,7.40
2023-05-04T00:08:18.002Z,6.95
2023-05-04T00:13:35.278Z,6.03
2023-05-04T00:18:51.099Z,7.18
2023-05-04T00:24:07.249Z,9.85
2023-05-04T00:29:23.129Z,10.15
2023-05-04T00:34:38.993Z,8.27
2023-05-04T00:39:55.089Z,7.85
2023-05-04T00:45:10.916Z,9.65
2023-05-04T00:50:27.939Z,8.65
2023-05-04T00:55:43.573Z,10.45
2023-05-04T01:01:00.036Z,9.43
2023-05-04T01:06:31.638Z,9.23
2023-05-04T01:11:53.311Z,9.43
2023-05-04T01:17:09.525Z,10.43
2023-05-04T01:22:25.204Z,9.50
2023-05-04T01:27:50.574Z,8.45
2023-05-04T01:33:07.392Z,6.32
2023-05-04T01:38:23.689Z,6.78
2023-05-04T01:43:39.372Z,5.60
2023-05-04T01:48:55.942Z,5.40
2023-05-04T01:54:11.967Z,5.32
2023-05-04T01:59:27.820Z,5.95
2023-05-04T02:04:43.773Z,5.40
2023-05-04T02:09:59.675Z,6.13
2023-05-04T02:15:15.668Z,6.00
2023-05-04T02:20:31.635Z,5.75
2023-05-04T02:25:47.434Z,6.53
2023-05-04T02:31:03.519Z,5.90
2023-05-04T02:36:19.472Z,5.90
2023-05-04T02:41:35.413Z,5.78
2023-05-04T02:46:51.218Z,5.20
2023-05-04T02:52:07.210Z,5.63
2023-05-04T02:57:23.217Z,6.22
2023-05-04T03:02:39.279Z,6.40
2023-05-04T03:07:55.257Z,6.38
2023-05-04T03:13:11.191Z,5.60
2023-05-04T03:18:27.050Z,6.20
2023-05-04T03:23:43.210Z,6.05
2023-05-04T03:28:59.119Z,5.63
2023-05-04T03:34:15.223Z,6.05
2023-05-04T03:39:31.041Z,5.35
2023-05-04T03:44:47.614Z,4.57
2023-05-04T03:50:03.981Z,4.57
2023-05-04T03:55:20.072Z,5.07
2023-05-04T04:00:36.049Z,6.10
2023-05-04T04:05:52.100Z,5.47
2023-05-04T04:11:08.010Z,5.10
2023-05-04T04:16:23.644Z,4.88
2023-05-04T04:21:39.279Z,5.13
2023-05-04T04:26:55.010Z,5.18
2023-05-04T04:32:11.295Z,5.97
2023-05-04T04:37:27.117Z,4.90
2023-05-04T04:42:43.163Z,4.95
2023-05-04T04:47:58.951Z,4.53
2023-05-04T04:53:14.845Z,4.45
2023-05-04T04:58:30.214Z,4.90
2023-05-04T05:03:46.360Z,5.80
2023-05-04T05:09:02.250Z,4.70
2023-05-04T05:14:17.900Z,5.07
2023-05-04T05:19:37.440Z,5.88
2023-05-04T05:24:52.976Z,4.93
2023-05-04T05:30:09.202Z,4.75
2023-05-04T05:35:25.146Z,3.50
2023-05-04T05:40:41.038Z,4.85
2023-05-04T05:45:57.728Z,5.30
2023-05-04T05:51:13.822Z,4.28
2023-05-04T05:56:29.874Z,4.07
2023-05-04T06:01:45.801Z,4.93
2023-05-04T06:07:01.847Z,3.40
2023-05-04T06:12:17.785Z,3.00
2023-05-04T06:17:34.166Z,2.47
2023-05-04T06:22:49.786Z,4.07
2023-05-04T06:28:06.398Z,2.75
2023-05-04T06:33:22.103Z,3.45
2023-05-04T06:38:39.186Z,3.10
2023-05-04T06:43:58.200Z,3.78
2023-05-04T06:49:14.609Z,3.17
2023-05-04T06:54:31.873Z,3.38
2023-05-04T06:59:47.840Z,2.78
2023-05-04T07:05:04.195Z,2.58
2023-05-04T07:10:20.048Z,2.30
2023-05-04T07:15:35.958Z,2.65
2023-05-04T07:20:52.931Z,2.65
2023-05-04T07:26:09.959Z,2.47
2023-05-04T07:31:27.518Z,2.38
2023-05-04T07:36:44.319Z,2.00
2023-05-04T07:42:00.492Z,1.83
2023-05-04T07:47:16.373Z,1.80
2023-05-04T07:52:33.084Z,2.05
2023-05-04T07:57:48.684Z,1.85
2023-05-04T08:03:04.942Z,1.67
2023-05-04T08:08:21.782Z,1.65
2023-05-04T08:13:37.616Z,2.20
2023-05-04T08:18:54.055Z,1.77
2023-05-04T08:24:10.005Z,2.05
2023-05-04T08:29:25.973Z,2.20
2023-05-04T08:34:41.920Z,1.50
2023-05-04T08:39:57.942Z,1.50
2023-05-04T08:45:15.079Z,1.88
2023-05-04T08:50:31.071Z,2.00
2023-05-04T08:55:47.977Z,1.80
2023-05-04T09:01:07.015Z,1.77
2023-05-04T09:06:24.528Z,1.77
2023-05-04T09:11:40.602Z,1.92
2023-05-04T09:16:56.820Z,2.00
2023-05-04T09:22:19.676Z,2.10
2023-05-04T09:27:35.215Z,1.92
2023-05-04T09:32:51.301Z,2.10
2023-05-04T09:38:07.581Z,1.88
2023-05-04T09:43:24.824Z,1.67
2023-05-04T09:48:54.298Z,2.60
2023-05-04T09:54:10.996Z,2.05
2023-05-04T09:59:32.142Z,1.98
2023-05-04T10:04:49.459Z,1.70
2023-05-04T10:10:07.413Z,1.95
2023-05-04T10:15:23.906Z,1.60
2023-05-04T10:21:06.172Z,2.03
